Time;durP1;ratioP1;P1;durP2;ratioP2;P2;SDS_P1;SDS_P2;PMS_P1;PMS_P2;Temp;Humidity;BMP_temperature;BMP_pressure;BME280_temperature;BME280_humidity;BME280_pressure;Samples;Min_cycle;Max_cycle;Signal;HPM_P1;HPM_P2
2022/05/09 00:01:50;;;;;;;12.93;4.20;;;6.50;99.90;;;;;;5034436;28;20053;-65
2022/05/09 00:04:16;;;;;;;16.63;5.20;;;6.50;99.90;;;;;;5035029;28;20092;-64
2022/05/09 00:06:41;;;;;;;15.38;4.60;;;6.40;99.90;;;;;;5034528;28;20057;-65
2022/05/09 00:09:07;;;;;;;16.50;5.30;;;6.40;99.90;;;;;;5033356;28;20049;-66
2022/05/09 00:11:33;;;;;;;11.43;4.68;;;6.40;99.90;;;;;;5034805;28;20065;-66
2022/05/09 00:14:00;;;;;;;18.90;4.70;;;6.40;99.90;;;;;;5033663;28;20413;-66
2022/05/09 00:16:28;;;;;;;15.18;5.07;;;6.40;99.90;;;;;;5033803;28;20379;-64
2022/05/09 00:18:53;;;;;;;21.38;5.45;;;6.40;99.90;;;;;;5035056;28;20111;-65
2022/05/09 00:21:19;;;;;;;13.10;5.15;;;6.30;99.90;;;;;;5035565;28;20057;-65
2022/05/09 00:23:45;;;;;;;16.00;5.85;;;6.30;99.90;;;;;;5033679;28;20049;-65
2022/05/09 00:26:11;;;;;;;12.73;4.45;;;6.40;99.90;;;;;;5034386;28;20052;-64
2022/05/09 00:28:36;;;;;;;13.57;5.57;;;6.20;99.90;;;;;;5034898;28;20346;-65
2022/05/09 00:31:02;;;;;;;9.95;5.00;;;6.20;99.90;;;;;;5033446;28;20511;-64
2022/05/09 00:33:28;;;;;;;15.38;5.57;;;6.10;99.90;;;;;;5031039;28;20045;-66
2022/05/09 00:35:53;;;;;;;18.10;6.18;;;6.20;99.90;;;;;;5016362;28;20187;-65
2022/05/09 00:38:19;;;;;;;16.10;5.47;;;6.20;99.90;;;;;;5035447;28;20080;-64
2022/05/09 00:41:28;;;;;;;13.60;4.30;;;6.10;99.90;;;;;;5035109;28;20152;-65
2022/05/09 00:43:33;;;;;;;14.32;4.53;;;6.20;99.90;;;;;;5034681;28;20049;-65
2022/05/09 00:46:01;;;;;;;16.90;5.80;;;6.10;99.90;;;;;;5033074;28;20462;-65
2022/05/09 00:48:26;;;;;;;14.07;4.60;;;6.10;99.90;;;;;;5033267;28;20052;-64
2022/05/09 00:50:52;;;;;;;14.18;5.18;;;6.10;99.90;;;;;;5032706;28;20058;-65
2022/05/09 00:53:19;;;;;;;16.88;4.97;;;6.10;99.90;;;;;;5032995;28;20045;-66
2022/05/09 00:55:49;;;;;;;14.70;4.88;;;6.00;99.90;;;;;;5033313;28;20053;-65
2022/05/09 00:58:26;;;;;;;14.60;4.93;;;6.10;99.90;;;;;;5032994;28;20061;-65
2022/05/09 01:00:54;;;;;;;15.68;5.70;;;6.00;99.90;;;;;;5032339;28;20060;-65
2022/05/09 01:03:43;;;;;;;16.45;6.07;;;6.10;99.90;;;;;;5032970;28;20061;-65
2022/05/09 01:06:09;;;;;;;10.95;5.50;;;6.00;99.90;;;;;;5033981;28;20403;-65
2022/05/09 01:08:35;;;;;;;14.32;5.50;;;6.00;99.90;;;;;;5032873;28;20128;-65
2022/05/09 01:11:10;;;;;;;14.52;5.55;;;6.10;99.90;;;;;;5034258;28;20563;-65
2022/05/09 01:13:41;;;;;;;12.07;5.05;;;6.10;99.90;;;;;;5033259;28;20054;-66
2022/05/09 01:16:08;;;;;;;12.13;4.85;;;6.00;99.90;;;;;;5031983;28;20049;-64
2022/05/09 01:18:35;;;;;;;11.80;4.63;;;6.00;99.90;;;;;;5032438;28;20131;-66
2022/05/09 01:21:07;;;;;;;12.25;4.88;;;5.90;99.90;;;;;;5033528;28;20418;-65
2022/05/09 01:23:34;;;;;;;17.23;5.38;;;5.90;99.90;;;;;;5033073;28;20394;-65
2022/05/09 01:26:00;;;;;;;12.77;5.07;;;5.90;99.90;;;;;;5033443;28;20409;-65
2022/05/09 01:28:25;;;;;;;15.70;5.30;;;5.80;99.90;;;;;;5031326;28;20133;-65
2022/05/09 01:30:59;;;;;;;13.52;5.30;;;5.80;99.90;;;;;;5031934;28;20395;-64
2022/05/09 01:33:32;;;;;;;18.35;4.93;;;5.70;99.90;;;;;;5032849;28;20128;-64
2022/05/09 01:36:06;;;;;;;11.20;4.82;;;5.80;99.90;;;;;;5032749;28;20054;-65
2022/05/09 01:38:44;;;;;;;14.93;5.00;;;5.70;99.90;;;;;;5034556;28;20060;-64
2022/05/09 01:41:09;;;;;;;11.93;4.88;;;5.70;99.90;;;;;;5032359;28;20068;-64
2022/05/09 01:43:38;;;;;;;17.70;5.50;;;5.70;99.90;;;;;;5032250;28;20124;-63
2022/05/09 01:46:08;;;;;;;16.63;6.25;;;5.70;99.90;;;;;;5031906;28;20084;-64
2022/05/09 01:51:18;;;;;;;13.45;6.18;;;5.70;99.90;;;;;;5033691;28;20053;-63
2022/05/09 01:53:49;;;;;;;14.93;6.13;;;5.70;99.90;;;;;;5032247;28;20053;-65
2022/05/09 01:56:15;;;;;;;16.25;5.60;;;5.70;99.90;;;;;;5031642;28;20057;-65
2022/05/09 01:58:41;;;;;;;20.17;5.65;;;5.70;99.90;;;;;;5032244;28;20057;-64
2022/05/09 02:01:07;;;;;;;10.02;5.25;;;5.70;99.90;;;;;;5031941;28;20477;-63
2022/05/09 02:03:33;;;;;;;17.23;5.35;;;5.70;99.90;;;;;;5032294;28;20110;-65
2022/05/09 02:05:59;;;;;;;12.95;5.82;;;5.50;99.90;;;;;;5031849;28;20500;-64
2022/05/09 02:08:25;;;;;;;14.38;5.45;;;5.60;99.90;;;;;;5032453;28;20092;-65
2022/05/09 02:10:51;;;;;;;15.18;5.38;;;5.60;99.90;;;;;;5033271;28;20060;-65
2022/05/09 02:13:16;;;;;;;17.92;6.25;;;5.60;99.90;;;;;;5032908;28;20385;-64
2022/05/09 02:15:42;;;;;;;11.55;5.20;;;5.60;99.90;;;;;;5029995;28;20057;-64
2022/05/09 02:18:08;;;;;;;19.75;5.85;;;5.50;99.90;;;;;;5031899;28;20057;-66
2022/05/09 02:20:34;;;;;;;13.25;5.70;;;5.60;99.90;;;;;;5032799;28;20047;-66
2022/05/09 02:22:59;;;;;;;12.35;5.50;;;5.60;99.90;;;;;;5033378;28;20057;-66
2022/05/09 02:25:31;;;;;;;15.55;5.90;;;5.50;99.90;;;;;;5033947;28;20451;-64
2022/05/09 02:28:02;;;;;;;10.77;5.03;;;5.50;99.90;;;;;;5030361;28;20428;-64
2022/05/09 02:30:28;;;;;;;15.27;5.63;;;5.50;99.90;;;;;;5033279;28;20057;-64
2022/05/09 02:32:54;;;;;;;15.43;5.18;;;5.50;99.90;;;;;;5032926;28;20061;-65
2022/05/09 02:35:20;;;;;;;12.75;5.32;;;5.50;99.90;;;;;;5032323;28;20137;-65
2022/05/09 02:37:48;;;;;;;13.18;5.72;;;5.40;99.90;;;;;;5031666;28;20107;-65
2022/05/09 02:40:14;;;;;;;16.98;6.82;;;5.30;99.90;;;;;;5031336;28;20049;-65
2022/05/09 02:42:39;;;;;;;20.88;6.85;;;5.40;99.90;;;;;;5032140;28;20132;-66
2022/05/09 02:45:06;;;;;;;13.25;5.82;;;5.40;99.90;;;;;;5031778;28;20558;-66
2022/05/09 02:47:32;;;;;;;16.65;5.45;;;5.40;99.90;;;;;;5031083;28;20065;-64
2022/05/09 02:49:57;;;;;;;14.90;5.95;;;5.40;99.90;;;;;;5031587;28;20090;-64
2022/05/09 02:52:23;;;;;;;18.05;5.88;;;5.40;99.90;;;;;;5031384;28;20049;-65
2022/05/09 02:54:48;;;;;;;16.20;5.68;;;5.40;99.90;;;;;;5031791;28;20103;-65
2022/05/09 02:57:14;;;;;;;16.70;5.72;;;5.40;99.90;;;;;;5030485;28;20057;-64
2022/05/09 02:59:40;;;;;;;18.58;5.80;;;5.30;99.90;;;;;;5032235;28;20311;-66
2022/05/09 03:02:07;;;;;;;13.35;5.40;;;5.30;99.90;;;;;;5030578;28;20061;-65
2022/05/09 03:04:41;;;;;;;15.98;5.95;;;5.30;99.90;;;;;;5031417;28;20448;-65
2022/05/09 03:07:15;;;;;;;13.10;5.18;;;5.40;99.90;;;;;;5030849;28;20179;-64
2022/05/09 03:09:42;;;;;;;14.98;5.65;;;5.20;99.90;;;;;;5014824;28;20136;-64
2022/05/09 03:12:10;;;;;;;14.75;5.57;;;5.20;99.90;;;;;;5030149;28;20045;-64
2022/05/09 03:14:36;;;;;;;14.68;6.15;;;5.20;99.90;;;;;;5031603;28;20057;-65
2022/05/09 03:17:03;;;;;;;14.65;5.75;;;5.20;99.90;;;;;;5031351;28;20061;-65
2022/05/09 03:19:30;;;;;;;11.95;4.97;;;5.10;99.90;;;;;;5031375;28;20100;-65
2022/05/09 03:21:56;;;;;;;14.90;5.80;;;5.10;99.90;;;;;;5030999;28;20175;-65
2022/05/09 03:24:21;;;;;;;12.07;5.30;;;5.10;99.90;;;;;;5032685;28;20092;-65
2022/05/09 03:26:48;;;;;;;16.00;5.32;;;5.10;99.90;;;;;;5030705;28;20077;-65
2022/05/09 03:29:15;;;;;;;10.85;4.88;;;5.10;99.90;;;;;;5031489;28;20050;-65
2022/05/09 03:31:41;;;;;;;13.90;5.85;;;5.00;99.90;;;;;;5031020;28;20133;-65
2022/05/09 03:34:06;;;;;;;18.02;5.82;;;5.00;99.90;;;;;;5034583;28;20088;-64
2022/05/09 03:36:33;;;;;;;13.63;5.65;;;5.00;99.90;;;;;;5034642;28;20096;-64
2022/05/09 03:38:58;;;;;;;16.25;5.65;;;5.00;99.90;;;;;;5036122;28;20059;-65
2022/05/09 03:41:24;;;;;;;9.35;5.03;;;5.00;99.90;;;;;;5035155;28;20045;-64
2022/05/09 03:43:50;;;;;;;12.65;5.30;;;5.00;99.90;;;;;;5034612;28;20358;-65
2022/05/09 03:46:16;;;;;;;19.75;5.47;;;4.90;99.90;;;;;;5033320;28;20064;-65
2022/05/09 03:48:41;;;;;;;13.70;5.28;;;4.90;99.90;;;;;;5033651;28;20060;-65
2022/05/09 03:51:07;;;;;;;14.88;5.72;;;4.90;99.90;;;;;;5035014;28;20049;-65
2022/05/09 03:53:34;;;;;;;18.80;6.45;;;5.00;99.90;;;;;;5018451;28;20057;-65
2022/05/09 03:56:00;;;;;;;12.02;5.35;;;5.00;99.90;;;;;;5034344;28;20060;-66
2022/05/09 03:58:26;;;;;;;16.40;6.43;;;4.90;99.90;;;;;;5035094;28;20340;-65
2022/05/09 04:00:52;;;;;;;11.43;5.45;;;4.90;99.90;;;;;;5034686;28;20195;-64
2022/05/09 04:03:18;;;;;;;11.30;5.85;;;5.00;99.90;;;;;;5034019;28;20050;-65
2022/05/09 04:05:44;;;;;;;11.77;5.40;;;5.00;99.90;;;;;;5034894;28;20150;-65
2022/05/09 04:08:12;;;;;;;15.82;6.93;;;5.10;99.90;;;;;;5036037;28;20502;-65
2022/05/09 04:10:40;;;;;;;15.70;5.80;;;5.10;99.90;;;;;;5035560;28;20053;-64
2022/05/09 04:13:06;;;;;;;16.10;6.97;;;5.10;99.90;;;;;;5035042;28;20059;-64
2022/05/09 04:18:17;;;;;;;19.92;7.03;;;5.20;99.90;;;;;;5025476;28;20402;-65
2022/05/09 04:20:44;;;;;;;15.75;6.07;;;5.20;99.90;;;;;;5034295;28;20132;-64
2022/05/09 04:23:10;;;;;;;18.95;6.85;;;5.20;99.90;;;;;;5033863;28;20092;-65
2022/05/09 04:25:36;;;;;;;13.27;6.28;;;5.30;99.90;;;;;;5035183;28;20057;-64
2022/05/09 04:28:05;;;;;;;18.88;6.95;;;5.30;99.90;;;;;;5035512;28;20186;-65
2022/05/09 04:30:33;;;;;;;19.00;6.50;;;5.40;99.90;;;;;;5033534;28;20065;-66
2022/05/09 04:32:59;;;;;;;13.65;7.00;;;5.40;99.90;;;;;;5034037;28;20049;-65
2022/05/09 04:35:25;;;;;;;18.80;6.60;;;5.40;99.90;;;;;;5035252;28;20069;-66
2022/05/09 04:37:53;;;;;;;16.90;5.97;;;5.60;99.90;;;;;;5032859;28;20163;-64
2022/05/09 04:40:31;;;;;;;15.35;7.30;;;5.60;99.90;;;;;;5033938;28;20106;-66
2022/05/09 04:42:58;;;;;;;17.52;7.47;;;5.60;99.90;;;;;;5032904;28;20057;-64
2022/05/09 04:45:25;;;;;;;16.60;7.15;;;5.60;99.90;;;;;;5033597;28;20054;-64
2022/05/09 04:47:51;;;;;;;16.70;7.72;;;5.70;99.90;;;;;;5033300;28;20053;-65
2022/05/09 04:50:19;;;;;;;19.55;7.20;;;5.80;99.90;;;;;;5035011;28;20183;-65
2022/05/09 04:52:45;;;;;;;16.00;7.07;;;5.80;99.90;;;;;;5033250;28;20058;-64
2022/05/09 04:55:12;;;;;;;21.23;7.57;;;5.80;99.90;;;;;;5033368;28;20391;-65
2022/05/09 04:57:38;;;;;;;17.25;7.07;;;5.80;99.90;;;;;;5032431;28;20064;-65
2022/05/09 05:00:07;;;;;;;21.08;6.82;;;5.80;99.90;;;;;;5034291;28;20057;-66
2022/05/09 05:02:32;;;;;;;18.02;7.95;;;5.90;99.90;;;;;;5032429;28;20045;-66
2022/05/09 05:04:58;;;;;;;16.10;5.78;;;5.90;99.90;;;;;;5032897;28;20099;-64
2022/05/09 05:07:23;;;;;;;17.70;7.68;;;6.00;99.90;;;;;;5034189;28;20486;-66
2022/05/09 05:09:49;;;;;;;16.38;7.60;;;6.00;99.90;;;;;;5031913;28;20049;-66
2022/05/09 05:12:15;;;;;;;14.57;7.63;;;6.00;99.90;;;;;;5032928;28;20046;-66
2022/05/09 05:14:40;;;;;;;12.95;6.18;;;6.00;99.90;;;;;;5034245;28;20049;-65
2022/05/09 05:17:06;;;;;;;17.23;7.25;;;6.10;99.90;;;;;;5032353;28;20085;-65
2022/05/09 05:19:36;;;;;;;16.48;7.40;;;6.10;99.90;;;;;;5033483;28;20053;-65
2022/05/09 05:22:04;;;;;;;15.75;7.68;;;6.20;99.90;;;;;;5033218;28;20573;-65
2022/05/09 05:24:38;;;;;;;13.73;7.47;;;6.20;99.90;;;;;;5032848;28;20563;-64
2022/05/09 05:27:04;;;;;;;16.02;7.20;;;6.30;99.90;;;;;;5032900;28;20049;-64
2022/05/09 05:29:31;;;;;;;16.00;7.72;;;6.40;99.90;;;;;;5034164;28;20528;-66
2022/05/09 05:31:56;;;;;;;13.05;7.40;;;6.50;99.90;;;;;;5030716;28;20096;-65
2022/05/09 05:34:22;;;;;;;17.63;7.95;;;6.60;99.90;;;;;;5027842;28;20049;-64
2022/05/09 05:36:50;;;;;;;14.40;7.15;;;7.00;99.90;;;;;;5032338;28;20509;-65
2022/05/09 05:39:17;;;;;;;15.02;7.70;;;8.40;99.90;;;;;;5029597;28;20064;-66
2022/05/09 05:41:44;;;;;;;16.88;7.47;;;9.40;99.90;;;;;;5027739;28;20049;-67
2022/05/09 05:44:11;;;;;;;14.50;6.75;;;10.40;99.90;;;;;;5031236;28;20481;-64
2022/05/09 05:46:41;;;;;;;17.45;7.10;;;11.30;99.90;;;;;;5027382;28;20440;-66
2022/05/09 05:49:09;;;;;;;16.75;7.07;;;11.80;99.90;;;;;;5027640;28;20481;-66
2022/05/09 05:51:36;;;;;;;17.50;6.93;;;12.30;99.90;;;;;;5044563;28;20087;-67
2022/05/09 05:54:04;;;;;;;15.73;7.25;;;12.90;99.90;;;;;;5032229;28;20049;-65
2022/05/09 05:56:30;;;;;;;13.80;6.45;;;13.40;99.90;;;;;;5029089;28;20072;-66
2022/05/09 05:58:56;;;;;;;13.73;6.85;;;13.70;99.90;;;;;;5033565;28;20466;-65
2022/05/09 06:01:22;;;;;;;13.57;5.75;;;14.10;99.90;;;;;;5031661;28;20064;-68
2022/05/09 06:03:49;;;;;;;15.93;6.60;;;14.00;99.90;;;;;;5032987;28;20099;-68
2022/05/09 06:06:15;;;;;;;13.05;5.72;;;14.30;99.90;;;;;;5031248;28;20524;-67
2022/05/09 06:08:43;;;;;;;9.10;5.13;;;14.90;99.90;;;;;;5014341;28;20049;-66
2022/05/09 06:11:10;;;;;;;17.92;5.97;;;14.60;99.90;;;;;;5030818;28;20050;-66
2022/05/09 06:13:36;;;;;;;15.38;6.07;;;14.40;99.90;;;;;;5032474;28;20080;-66
2022/05/09 06:16:03;;;;;;;13.05;6.20;;;14.70;99.90;;;;;;5032926;28;20056;-66
2022/05/09 06:18:28;;;;;;;13.43;6.10;;;14.30;99.90;;;;;;5015368;28;20095;-65
2022/05/09 06:20:54;;;;;;;11.60;5.80;;;13.30;99.90;;;;;;5032117;28;20054;-65
2022/05/09 06:23:20;;;;;;;15.85;6.40;;;12.60;99.90;;;;;;5028664;28;20978;-68
2022/05/09 06:25:49;;;;;;;14.93;6.18;;;12.30;99.90;;;;;;5031243;28;20129;-67
2022/05/09 06:28:15;;;;;;;14.82;5.78;;;11.60;99.90;;;;;;5029433;28;20063;-65
2022/05/09 06:30:43;;;;;;;13.50;5.75;;;11.40;99.90;;;;;;5031761;28;20138;-65
2022/05/09 06:33:09;;;;;;;16.13;4.90;;;11.40;99.90;;;;;;5030347;28;20084;-65
2022/05/09 06:35:40;;;;;;;11.18;5.35;;;11.40;99.90;;;;;;5031473;28;20088;-65
2022/05/09 06:38:06;;;;;;;12.45;5.40;;;11.30;99.90;;;;;;5033128;28;20054;-65
2022/05/09 06:40:35;;;;;;;11.65;4.78;;;11.30;99.90;;;;;;5030604;28;20145;-65
2022/05/09 06:43:03;;;;;;;12.93;5.40;;;11.40;99.90;;;;;;5028780;28;20110;-65
2022/05/09 06:45:29;;;;;;;14.75;5.80;;;11.40;99.90;;;;;;5030236;28;20600;-65
2022/05/09 06:47:56;;;;;;;14.98;5.18;;;11.50;99.90;;;;;;5029592;28;20174;-64
2022/05/09 06:50:24;;;;;;;11.30;4.60;;;11.60;99.90;;;;;;5032556;28;20520;-65
2022/05/09 06:52:49;;;;;;;14.30;5.53;;;11.80;99.90;;;;;;5029389;28;20054;-66
2022/05/09 06:55:16;;;;;;;10.48;5.32;;;11.90;99.90;;;;;;5030447;28;20516;-65
2022/05/09 06:57:45;;;;;;;11.63;5.30;;;12.20;99.90;;;;;;5031051;28;20064;-64
2022/05/09 07:00:19;;;;;;;11.65;5.03;;;12.10;99.90;;;;;;5031449;28;20053;-65
2022/05/09 07:02:46;;;;;;;11.00;4.93;;;12.30;99.90;;;;;;5030835;28;20478;-65
2022/05/09 07:05:15;;;;;;;13.50;5.13;;;12.20;99.90;;;;;;5030995;28;20128;-66
2022/05/09 07:07:42;;;;;;;9.43;4.85;;;12.40;99.90;;;;;;5032170;28;20103;-66
2022/05/09 07:10:08;;;;;;;14.30;5.30;;;12.60;99.90;;;;;;5029364;28;20145;-65
2022/05/09 07:12:42;;;;;;;12.10;5.55;;;12.70;99.90;;;;;;5032208;28;20053;-66
2022/05/09 07:15:08;;;;;;;12.77;5.32;;;12.80;99.90;;;;;;5032541;28;20049;-65
2022/05/09 07:17:34;;;;;;;12.40;5.10;;;13.00;99.90;;;;;;5031401;28;20104;-66
2022/05/09 07:19:59;;;;;;;13.48;5.20;;;13.20;99.90;;;;;;5032588;28;20057;-65
2022/05/09 07:22:25;;;;;;;11.98;5.68;;;13.40;99.90;;;;;;5030666;28;20049;-66
2022/05/09 07:24:50;;;;;;;15.18;5.68;;;13.50;99.90;;;;;;5030887;28;20111;-65
2022/05/09 07:27:17;;;;;;;15.93;5.93;;;13.70;99.90;;;;;;5030715;28;20128;-66
2022/05/09 07:29:42;;;;;;;13.07;5.00;;;13.90;99.90;;;;;;5030743;28;20050;-64
2022/05/09 07:32:08;;;;;;;11.63;4.75;;;13.80;99.90;;;;;;5012412;28;20041;-64
2022/05/09 07:34:34;;;;;;;10.57;5.32;;;14.00;99.90;;;;;;5013946;28;20049;-64
2022/05/09 07:36:59;;;;;;;13.40;5.60;;;13.90;99.90;;;;;;5014518;28;20133;-65
2022/05/09 07:39:25;;;;;;;13.10;5.20;;;14.40;99.90;;;;;;5030388;28;20057;-64
2022/05/09 07:41:50;;;;;;;12.55;5.65;;;14.50;99.90;;;;;;5030757;28;20049;-65
2022/05/09 07:44:16;;;;;;;18.42;5.85;;;14.70;99.90;;;;;;5030872;28;20135;-66
2022/05/09 07:46:41;;;;;;;13.93;6.07;;;14.60;99.90;;;;;;5030515;28;20053;-65
2022/05/09 07:49:07;;;;;;;12.38;4.60;;;14.80;99.90;;;;;;5030236;28;20092;-67
2022/05/09 07:51:37;;;;;;;10.65;5.13;;;15.00;99.90;;;;;;5031210;28;20061;-66
2022/05/09 07:54:03;;;;;;;11.52;5.05;;;15.10;99.90;;;;;;5030394;28;20387;-66
2022/05/09 07:56:29;;;;;;;7.82;4.72;;;15.70;99.90;;;;;;5030320;28;20060;-65
2022/05/09 07:58:54;;;;;;;14.88;4.90;;;15.40;99.90;;;;;;5028807;28;20057;-65
2022/05/09 08:01:20;;;;;;;12.05;4.57;;;15.40;99.90;;;;;;5030034;28;20061;-67
2022/05/09 08:03:48;;;;;;;7.38;4.22;;;15.30;99.90;;;;;;5031099;28;20199;-67
2022/05/09 08:06:13;;;;;;;13.23;5.07;;;15.80;99.90;;;;;;5029701;28;20046;-67
2022/05/09 08:08:40;;;;;;;13.70;4.63;;;15.80;99.90;;;;;;5027931;28;20057;-64
2022/05/09 08:11:06;;;;;;;9.68;4.30;;;15.90;99.90;;;;;;5031876;28;20054;-66
2022/05/09 08:13:34;;;;;;;13.93;5.30;;;15.80;99.90;;;;;;5030587;28;20141;-66
2022/05/09 08:16:02;;;;;;;16.17;4.85;;;16.00;99.90;;;;;;5027478;28;20402;-66
2022/05/09 08:18:29;;;;;;;10.52;4.10;;;16.80;99.90;;;;;;5030682;28;20057;-65
2022/05/09 08:20:57;;;;;;;12.43;4.30;;;16.20;99.90;;;;;;5033393;28;20064;-66
2022/05/09 08:23:23;;;;;;;10.63;4.47;;;16.30;99.90;;;;;;5035112;28;20053;-68
2022/05/09 08:25:50;;;;;;;14.82;4.38;;;16.50;99.90;;;;;;5033672;28;20061;-65
2022/05/09 08:28:17;;;;;;;10.55;3.92;;;16.50;99.90;;;;;;5033033;28;20065;-65
2022/05/09 08:30:44;;;;;;;10.18;4.03;;;16.70;99.90;;;;;;5034917;28;20080;-65
2022/05/09 08:33:15;;;;;;;9.55;4.40;;;16.90;99.90;;;;;;5034949;28;20057;-65
2022/05/09 08:35:43;;;;;;;11.03;3.73;;;16.90;99.90;;;;;;5034163;28;20144;-65
2022/05/09 08:38:09;;;;;;;9.05;3.88;;;17.00;99.90;;;;;;5033044;28;20280;-66
2022/05/09 08:40:45;;;;;;;9.32;3.78;;;17.10;99.90;;;;;;5033483;28;20045;-68
2022/05/09 08:43:33;;;;;;;8.43;4.07;;;17.30;99.90;;;;;;5033984;28;20050;-67
2022/05/09 08:46:23;;;;;;;8.98;3.35;;;17.20;99.90;;;;;;5034808;28;20045;-67
2022/05/09 08:49:25;;;;;;;11.25;4.57;;;17.30;99.30;;;;;;5035380;28;20089;-66
2022/05/09 08:52:03;;;;;;;7.88;3.30;;;17.50;97.60;;;;;;5030664;28;20050;-68
2022/05/09 08:54:29;;;;;;;7.25;3.25;;;17.50;93.50;;;;;;5031481;28;20143;-64
2022/05/09 08:57:04;;;;;;;7.00;3.60;;;17.60;95.70;;;;;;5029639;28;20440;-64
2022/05/09 08:59:44;;;;;;;11.05;3.75;;;17.80;94.40;;;;;;5032970;28;20125;-64
2022/05/09 09:02:31;;;;;;;9.18;3.28;;;17.90;92.90;;;;;;5032996;28;20041;-66
2022/05/09 09:04:58;;;;;;;6.68;3.33;;;17.70;88.70;;;;;;5033065;28;20050;-67
2022/05/09 09:07:30;;;;;;;9.63;2.97;;;17.80;93.70;;;;;;5032219;28;20045;-65
2022/05/09 09:10:02;;;;;;;7.70;2.90;;;18.10;92.80;;;;;;5032946;28;20088;-66
2022/05/09 09:13:04;;;;;;;8.60;3.42;;;18.20;90.00;;;;;;5032534;28;20137;-65
2022/05/09 09:15:42;;;;;;;;;;;18.40;83.10;;;;;;5034202;28;20080;-68
2022/05/09 09:18:19;;;;;;;7.97;2.67;;;18.40;82.30;;;;;;5034536;28;19975;-66
2022/05/09 09:21:00;;;;;;;10.73;3.33;;;18.40;87.80;;;;;;5030343;28;20042;-66
2022/05/09 09:23:31;;;;;;;9.32;3.13;;;18.70;85.90;;;;;;5032555;28;20057;-67
2022/05/09 09:26:07;;;;;;;8.32;3.00;;;18.60;85.60;;;;;;5032647;28;20094;-66
2022/05/09 09:28:49;;;;;;;6.10;2.88;;;18.70;80.60;;;;;;5032427;28;20087;-65
2022/05/09 09:31:22;;;;;;;8.57;3.15;;;18.90;81.40;;;;;;5032317;28;20057;-65
2022/05/09 09:34:02;;;;;;;8.80;3.33;;;19.00;82.10;;;;;;5034016;28;20053;-66
2022/05/09 09:36:36;;;;;;;10.25;3.50;;;19.20;78.70;;;;;;5034431;28;20049;-64
2022/05/09 09:39:11;;;;;;;5.97;3.20;;;19.30;80.00;;;;;;5032744;28;20095;-65
2022/05/09 09:41:37;;;;;;;6.75;3.60;;;19.10;80.00;;;;;;5032849;28;20123;-64
2022/05/09 09:44:21;;;;;;;7.97;3.33;;;19.40;78.50;;;;;;5033291;28;20046;-65
2022/05/09 09:47:11;;;;;;;7.85;3.58;;;19.40;76.70;;;;;;5028674;28;20045;-65
2022/05/09 09:49:40;;;;;;;8.82;3.50;;;19.40;74.40;;;;;;5030362;28;20056;-65
2022/05/09 09:52:26;;;;;;;8.90;3.67;;;19.10;78.00;;;;;;5031722;28;20049;-63
2022/05/09 09:55:07;;;;;;;9.77;4.13;;;19.30;77.70;;;;;;5029745;28;20080;-64
2022/05/09 09:57:36;;;;;;;9.82;4.05;;;19.50;75.80;;;;;;5022975;28;20564;-64
2022/05/09 10:00:26;;;;;;;8.77;3.70;;;19.40;78.20;;;;;;5033027;28;20049;-66
2022/05/09 10:02:56;;;;;;;8.82;3.83;;;19.50;75.80;;;;;;5032574;28;20417;-64
2022/05/09 10:05:34;;;;;;;6.60;3.60;;;19.30;77.20;;;;;;5030079;28;20060;-64
2022/05/09 10:08:21;;;;;;;7.80;3.15;;;19.40;76.00;;;;;;5028420;28;20038;-67
2022/05/09 10:11:18;;;;;;;5.93;2.63;;;19.60;74.00;;;;;;5022270;28;20152;-66
2022/05/09 10:13:50;;;;;;;7.28;3.28;;;19.80;75.70;;;;;;5027177;28;20056;-66
2022/05/09 10:16:33;;;;;;;6.68;2.58;;;19.80;76.10;;;;;;5032065;28;20041;-65
2022/05/09 10:19:06;;;;;;;9.80;3.70;;;19.90;75.90;;;;;;5016151;28;20041;-65
2022/05/09 10:27:22;;;;;;;6.05;2.35;;;20.50;75.20;;;;;;5030989;28;20041;-64
2022/05/09 10:29:55;;;;;;;7.28;2.40;;;20.30;73.90;;;;;;5033282;28;20508;-65
2022/05/09 10:32:30;;;;;;;6.97;2.70;;;20.40;72.60;;;;;;5031461;28;20136;-65
2022/05/09 10:35:20;;;;;;;5.85;2.55;;;20.60;72.00;;;;;;5050519;28;20127;-65
2022/05/09 10:38:00;;;;;;;8.02;2.70;;;20.30;71.10;;;;;;5029000;28;20102;-65
2022/05/09 10:40:43;;;;;;;5.53;2.28;;;20.40;71.70;;;;;;5029571;28;20543;-65
2022/05/09 10:43:11;;;;;;;7.18;2.88;;;20.60;72.00;;;;;;5032343;28;20116;-66
2022/05/09 10:45:44;;;;;;;4.53;2.58;;;20.50;72.40;;;;;;5048544;28;20060;-63
2022/05/09 10:48:21;;;;;;;5.68;2.50;;;20.70;72.20;;;;;;5050240;28;20470;-64
2022/05/09 10:51:11;;;;;;;5.63;2.47;;;20.70;71.50;;;;;;5049791;28;20056;-65
2022/05/09 10:53:55;;;;;;;7.50;2.85;;;20.50;70.70;;;;;;5049349;28;20049;-66
2022/05/09 10:56:28;;;;;;;9.00;2.65;;;20.70;70.20;;;;;;5015680;28;20076;-66
2022/05/09 10:58:57;;;;;;;5.55;2.75;;;20.70;72.10;;;;;;5049815;28;20075;-65
2022/05/09 11:01:33;;;;;;;6.25;2.20;;;20.80;71.60;;;;;;5049967;28;20060;-65
2022/05/09 11:04:00;;;;;;;6.63;2.58;;;20.80;71.40;;;;;;5049142;28;20059;-65
2022/05/09 11:06:55;;;;;;;5.43;2.28;;;20.90;71.90;;;;;;5035672;28;20081;-65
2022/05/09 11:09:28;;;;;;;6.90;2.40;;;21.10;71.00;;;;;;5029846;28;20049;-64
2022/05/09 11:12:12;;;;;;;7.38;2.53;;;21.00;72.40;;;;;;5030793;28;20075;-66
2022/05/09 11:15:06;;;;;;;5.47;2.35;;;21.20;69.70;;;;;;5031714;28;20049;-64
2022/05/09 11:18:04;;;;;;;7.10;2.67;;;21.30;71.20;;;;;;5011350;28;20077;-65
2022/05/09 11:21:11;;;;;;;6.93;2.42;;;21.50;72.50;;;;;;5011840;28;20046;-65
2022/05/09 11:23:54;;;;;;;10.18;3.15;;;21.50;71.10;;;;;;5012769;28;20131;-65
2022/05/09 11:26:33;;;;;;;6.95;2.70;;;21.50;70.50;;;;;;5017413;28;20362;-66
2022/05/09 11:29:05;;;;;;;5.70;2.40;;;21.70;70.50;;;;;;5032370;28;20397;-65
2022/05/09 11:31:36;;;;;;;5.45;2.83;;;21.60;70.30;;;;;;5032085;28;20143;-64
2022/05/09 11:34:23;;;;;;;4.30;2.73;;;21.80;71.00;;;;;;5032718;28;20061;-64
2022/05/09 11:36:59;;;;;;;5.45;2.50;;;21.90;68.90;;;;;;5032427;28;20061;-65
2022/05/09 11:39:53;;;;;;;5.47;2.35;;;21.80;70.70;;;;;;5031378;28;20438;-65
2022/05/09 11:45:44;;;;;;;7.45;2.88;;;22.10;69.30;;;;;;5031200;28;20057;-64
2022/05/09 11:48:37;;;;;;;8.32;3.08;;;21.90;70.70;;;;;;5031923;28;20049;-64
2022/05/09 11:51:36;;;;;;;7.35;3.15;;;22.00;69.60;;;;;;5030633;28;20409;-63
2022/05/09 11:54:27;;;;;;;8.32;2.42;;;22.00;68.30;;;;;;5032695;28;20057;-64
2022/05/09 11:57:00;;;;;;;6.63;2.80;;;22.00;71.60;;;;;;5035376;28;20072;-65
2022/05/09 11:59:30;;;;;;;6.72;2.85;;;22.40;70.80;;;;;;5032616;28;20493;-64
2022/05/09 12:02:06;;;;;;;6.70;2.50;;;22.20;69.60;;;;;;5034320;28;20494;-65
2022/05/09 12:04:35;;;;;;;7.70;2.80;;;22.30;68.20;;;;;;5034981;28;20447;-65
2022/05/09 12:07:20;;;;;;;10.20;2.42;;;22.30;69.10;;;;;;5035938;28;20060;-65
2022/05/09 12:10:02;;;;;;;7.32;3.28;;;22.40;69.70;;;;;;5035916;28;20103;-65
2022/05/09 12:12:37;;;;;;;;;;;22.40;67.70;;;;;;5034494;28;20079;-66
2022/05/09 12:15:06;;;;;;;6.75;3.05;;;22.40;68.10;;;;;;5034820;28;20219;-65
2022/05/09 12:17:37;;;;;;;6.85;2.53;;;22.30;68.60;;;;;;5033887;28;20065;-64
2022/05/09 12:20:29;;;;;;;8.55;2.60;;;22.40;68.60;;;;;;5034604;28;20057;-64
2022/05/09 12:23:04;;;;;;;;;;;22.40;67.60;;;;;;5034660;28;20119;-64
2022/05/09 12:25:40;;;;;;;4.75;1.90;;;22.40;69.20;;;;;;5035242;28;19921;-64
2022/05/09 12:28:19;;;;;;;8.27;2.90;;;22.70;68.30;;;;;;5032542;28;20045;-65
2022/05/09 12:30:58;;;;;;;5.68;2.90;;;22.80;67.00;;;;;;5031759;28;20060;-63
2022/05/09 12:33:28;;;;;;;4.47;2.25;;;22.70;67.10;;;;;;5035568;28;20077;-65
2022/05/09 12:35:58;;;;;;;5.80;2.20;;;22.40;66.90;;;;;;5033549;28;20049;-64
2022/05/09 12:38:28;;;;;;;4.72;2.22;;;22.70;68.10;;;;;;5034163;28;20045;-66
2022/05/09 12:41:09;;;;;;;5.00;2.10;;;22.70;68.00;;;;;;5032318;28;20052;-66
2022/05/09 12:43:36;;;;;;;6.50;2.20;;;22.80;67.00;;;;;;5031792;28;20049;-66
2022/05/09 12:46:05;;;;;;;8.35;2.70;;;22.60;66.40;;;;;;5029456;28;20336;-65
2022/05/09 12:48:31;;;;;;;7.05;2.20;;;22.90;67.90;;;;;;5034297;28;20121;-65
2022/05/09 12:51:10;;;;;;;6.35;2.40;;;22.80;66.20;;;;;;5032299;28;20061;-65
2022/05/09 12:53:36;;;;;;;7.47;2.35;;;23.70;66.00;;;;;;5034312;28;20046;-67
2022/05/09 12:56:09;;;;;;;5.75;2.40;;;22.80;65.80;;;;;;5034480;28;20049;-66
2022/05/09 12:58:38;;;;;;;5.43;2.08;;;23.00;64.60;;;;;;5032313;28;20094;-67
2022/05/09 13:01:19;;;;;;;4.95;2.35;;;23.20;65.60;;;;;;5028765;28;20120;-65
2022/05/09 13:03:49;;;;;;;5.33;2.60;;;22.80;64.40;;;;;;5034743;28;20053;-66
2022/05/09 13:06:24;;;;;;;4.82;2.13;;;23.00;66.30;;;;;;5032317;28;20872;-65
2022/05/09 13:08:50;;;;;;;6.43;2.20;;;22.80;65.20;;;;;;5033668;28;20470;-66
2022/05/09 13:11:26;;;;;;;5.68;2.20;;;23.00;66.00;;;;;;5032485;28;20064;-66
2022/05/09 13:14:05;;;;;;;6.22;2.28;;;23.00;65.30;;;;;;5034601;28;20046;-65
2022/05/09 13:16:41;;;;;;;8.23;2.38;;;23.30;65.40;;;;;;5031956;28;20430;-67
2022/05/09 13:19:14;;;;;;;6.15;2.28;;;23.40;65.90;;;;;;5033515;28;20073;-66